sensor_id;sensor_type;location;lat;lon;timestamp;pressure;altitude;pressure_sealevel;temperature;humidity
13767;BME280;47980;48.794;9.176;2023-04-10T00:02:00;98845.31;;;7.78;67.46
13767;BME280;47980;48.794;9.176;2023-04-10T00:04:31;98853.25;;;7.78;68.41
13767;BME280;47980;48.794;9.176;2023-04-10T00:07:04;98851.47;;;7.74;67.71
13767;BME280;47980;48.794;9.176;2023-04-10T00:09:36;98849.31;;;7.76;67.15
13767;BME280;47980;48.794;9.176;2023-04-10T00:12:07;98847.25;;;7.72;68.53
13767;BME280;47980;48.794;9.176;2023-04-10T00:14:40;98843.59;;;7.68;67.90
13767;BME280;47980;48.794;9.176;2023-04-10T00:17:11;98846.03;;;7.65;69.21
13767;BME280;47980;48.794;9.176;2023-04-10T00:19:43;98850.63;;;7.59;69.22
13767;BME280;47980;48.794;9.176;2023-04-10T00:22:16;98844.09;;;7.33;70.95
13767;BME280;47980;48.794;9.176;2023-04-10T00:24:48;98842.09;;;7.24;71.06
13767;BME280;47980;48.794;9.176;2023-04-10T00:27:20;98841.41;;;7.19;71.62
13767;BME280;47980;48.794;9.176;2023-04-10T00:29:51;98839.25;;;7.21;71.18
13767;BME280;47980;48.794;9.176;2023-04-10T00:32:23;98840.81;;;7.22;70.68
13767;BME280;47980;48.794;9.176;2023-04-10T00:34:55;98842.09;;;7.24;72.39
13767;BME280;47980;48.794;9.176;2023-04-10T00:37:28;98840.88;;;7.17;71.97
13767;BME280;47980;48.794;9.176;2023-04-10T00:39:59;98837.03;;;7.09;71.71
13767;BME280;47980;48.794;9.176;2023-04-10T00:42:31;98845.16;;;7.13;72.61
13767;BME280;47980;48.794;9.176;2023-04-10T00:45:03;98831.66;;;6.95;73.88
13767;BME280;47980;48.794;9.176;2023-04-10T00:47:36;98841.69;;;6.93;74.26
13767;BME280;47980;48.794;9.176;2023-04-10T00:50:08;98829.41;;;6.84;73.61
13767;BME280;47980;48.794;9.176;2023-04-10T00:52:41;98825.16;;;6.88;73.64
13767;BME280;47980;48.794;9.176;2023-04-10T00:55:14;98826.56;;;6.80;75.27
13767;BME280;47980;48.794;9.176;2023-04-10T00:57:46;98826.56;;;6.80;75.23
13767;BME280;47980;48.794;9.176;2023-04-10T01:00:18;98821.84;;;7.01;72.82
13767;BME280;47980;48.794;9.176;2023-04-10T01:02:49;98819.56;;;6.89;73.96
13767;BME280;47980;48.794;9.176;2023-04-10T01:05:21;98809.22;;;6.74;74.81
13767;BME280;47980;48.794;9.176;2023-04-10T01:08:01;98828.13;;;6.81;74.58
13767;BME280;47980;48.794;9.176;2023-04-10T01:10:43;98825.31;;;6.72;74.72
13767;BME280;47980;48.794;9.176;2023-04-10T01:13:22;98826.59;;;6.75;75.78
13767;BME280;47980;48.794;9.176;2023-04-10T01:16:00;98833.88;;;6.59;76.42
13767;BME280;47980;48.794;9.176;2023-04-10T01:18:37;98830.72;;;6.57;76.64
13767;BME280;47980;48.794;9.176;2023-04-10T01:21:13;98828.28;;;6.66;74.91
13767;BME280;47980;48.794;9.176;2023-04-10T01:23:53;98824.41;;;6.58;75.02
13767;BME280;47980;48.794;9.176;2023-04-10T01:26:41;98827.72;;;6.45;75.97
13767;BME280;47980;48.794;9.176;2023-04-10T01:29:16;98835.34;;;6.46;76.61
13767;BME280;47980;48.794;9.176;2023-04-10T01:31:52;98830.63;;;6.43;76.36
13767;BME280;47980;48.794;9.176;2023-04-10T01:34:31;98836.16;;;6.42;77.08
13767;BME280;47980;48.794;9.176;2023-04-10T01:37:06;98831.13;;;6.45;76.53
13767;BME280;47980;48.794;9.176;2023-04-10T01:39:40;98841.28;;;6.57;76.15
13767;BME280;47980;48.794;9.176;2023-04-10T01:42:13;98833.22;;;6.48;75.92
13767;BME280;47980;48.794;9.176;2023-04-10T01:44:48;98825.94;;;6.35;76.64
13767;BME280;47980;48.794;9.176;2023-04-10T01:47:21;98823.91;;;6.32;77.29
13767;BME280;47980;48.794;9.176;2023-04-10T01:49:55;98817.31;;;6.30;77.92
13767;BME280;47980;48.794;9.176;2023-04-10T01:52:29;98822.91;;;6.23;77.60
13767;BME280;47980;48.794;9.176;2023-04-10T01:55:01;98817.66;;;6.23;77.96
13767;BME280;47980;48.794;9.176;2023-04-10T01:57:34;98814.28;;;6.17;78.20
13767;BME280;47980;48.794;9.176;2023-04-10T02:00:08;98814.63;;;6.35;77.78
13767;BME280;47980;48.794;9.176;2023-04-10T02:02:40;98812.78;;;6.35;76.81
13767;BME280;47980;48.794;9.176;2023-04-10T02:05:14;98812.44;;;6.42;77.16
13767;BME280;47980;48.794;9.176;2023-04-10T02:07:54;98805.69;;;6.36;76.35
13767;BME280;47980;48.794;9.176;2023-04-10T02:10:29;98802.53;;;6.34;75.91
13767;BME280;47980;48.794;9.176;2023-04-10T02:13:05;98805.09;;;6.15;77.45
13767;BME280;47980;48.794;9.176;2023-04-10T02:15:41;98803.28;;;6.10;77.65
13767;BME280;47980;48.794;9.176;2023-04-10T02:18:14;98803.22;;;6.15;77.60
13767;BME280;47980;48.794;9.176;2023-04-10T02:20:46;98810.28;;;6.20;76.97
13767;BME280;47980;48.794;9.176;2023-04-10T02:23:19;98808.03;;;6.08;78.43
13767;BME280;47980;48.794;9.176;2023-04-10T02:25:50;98813.59;;;6.07;78.67
13767;BME280;47980;48.794;9.176;2023-04-10T02:28:22;98807.00;;;6.04;78.45
13767;BME280;47980;48.794;9.176;2023-04-10T02:30:55;98806.47;;;6.07;78.46
13767;BME280;47980;48.794;9.176;2023-04-10T02:33:27;98807.81;;;6.05;77.46
13767;BME280;47980;48.794;9.176;2023-04-10T02:35:59;98815.28;;;5.92;78.53
13767;BME280;47980;48.794;9.176;2023-04-10T02:38:30;98821.91;;;5.85;80.17
13767;BME280;47980;48.794;9.176;2023-04-10T02:41:02;98815.22;;;5.97;79.63
13767;BME280;47980;48.794;9.176;2023-04-10T02:43:34;98819.22;;;5.90;78.98
13767;BME280;47980;48.794;9.176;2023-04-10T02:46:07;98827.13;;;5.90;79.28
13767;BME280;47980;48.794;9.176;2023-04-10T02:48:38;98816.06;;;5.93;79.80
13767;BME280;47980;48.794;9.176;2023-04-10T02:51:10;98824.53;;;5.85;79.23
13767;BME280;47980;48.794;9.176;2023-04-10T02:53:42;98824.38;;;5.71;81.26
13767;BME280;47980;48.794;9.176;2023-04-10T02:56:13;98829.09;;;5.69;82.17
13767;BME280;47980;48.794;9.176;2023-04-10T02:58:45;98824.63;;;5.69;82.00
13767;BME280;47980;48.794;9.176;2023-04-10T03:01:18;98824.63;;;5.69;82.56
13767;BME280;47980;48.794;9.176;2023-04-10T03:03:49;98834.06;;;5.75;81.87
13767;BME280;47980;48.794;9.176;2023-04-10T03:06:21;98827.72;;;5.76;81.77
13767;BME280;47980;48.794;9.176;2023-04-10T03:08:56;98829.56;;;5.76;81.22
13767;BME280;47980;48.794;9.176;2023-04-10T03:11:27;98830.16;;;5.68;82.61
13767;BME280;47980;48.794;9.176;2023-04-10T03:13:59;98828.50;;;5.77;81.17
13767;BME280;47980;48.794;9.176;2023-04-10T03:16:32;98826.75;;;5.67;81.88
13767;BME280;47980;48.794;9.176;2023-04-10T03:19:04;98818.06;;;5.67;81.54
13767;BME280;47980;48.794;9.176;2023-04-10T03:21:35;98823.59;;;5.65;82.97
13767;BME280;47980;48.794;9.176;2023-04-10T03:24:07;98817.84;;;5.63;82.73
13767;BME280;47980;48.794;9.176;2023-04-10T03:26:39;98814.16;;;5.59;82.19
13767;BME280;47980;48.794;9.176;2023-04-10T03:29:10;98807.31;;;5.63;81.63
13767;BME280;47980;48.794;9.176;2023-04-10T03:31:44;98810.97;;;5.67;81.57
13767;BME280;47980;48.794;9.176;2023-04-10T03:34:16;98798.59;;;5.68;81.46
13767;BME280;47980;48.794;9.176;2023-04-10T03:36:47;98798.31;;;5.69;81.21
13767;BME280;47980;48.794;9.176;2023-04-10T03:39:19;98803.06;;;5.67;82.24
13767;BME280;47980;48.794;9.176;2023-04-10T03:41:51;98802.84;;;5.64;81.80
13767;BME280;47980;48.794;9.176;2023-04-10T03:44:22;98792.00;;;5.70;81.29
13767;BME280;47980;48.794;9.176;2023-04-10T03:46:55;98785.78;;;5.56;80.84
13767;BME280;47980;48.794;9.176;2023-04-10T03:49:27;98786.75;;;5.65;81.14
13767;BME280;47980;48.794;9.176;2023-04-10T03:51:58;98791.03;;;5.56;80.73
13767;BME280;47980;48.794;9.176;2023-04-10T03:54:30;98790.03;;;5.47;81.63
13767;BME280;47980;48.794;9.176;2023-04-10T03:57:02;98790.31;;;5.45;83.15
13767;BME280;47980;48.794;9.176;2023-04-10T03:59:33;98788.47;;;5.46;82.46
13767;BME280;47980;48.794;9.176;2023-04-10T04:02:06;98793.34;;;5.63;80.83
13767;BME280;47980;48.794;9.176;2023-04-10T04:04:38;98788.41;;;5.56;81.39
13767;BME280;47980;48.794;9.176;2023-04-10T04:07:10;98790.28;;;5.50;82.15
13767;BME280;47980;48.794;9.176;2023-04-10T04:09:42;98790.59;;;5.44;82.96
13767;BME280;47980;48.794;9.176;2023-04-10T04:12:14;98792.00;;;5.31;83.48
13767;BME280;47980;48.794;9.176;2023-04-10T04:14:46;98788.81;;;5.34;83.42
13767;BME280;47980;48.794;9.176;2023-04-10T04:17:19;98774.59;;;5.35;83.93
13767;BME280;47980;48.794;9.176;2023-04-10T04:19:50;98776.16;;;5.41;82.92
13767;BME280;47980;48.794;9.176;2023-04-10T04:22:22;98779.81;;;5.45;83.08
13767;BME280;47980;48.794;9.176;2023-04-10T04:24:53;98776.41;;;5.40;83.25
13767;BME280;47980;48.794;9.176;2023-04-10T04:27:25;98778.50;;;5.43;84.00
13767;BME280;47980;48.794;9.176;2023-04-10T04:29:56;98782.97;;;5.42;83.32
13767;BME280;47980;48.794;9.176;2023-04-10T04:32:29;98778.44;;;5.48;82.64
13767;BME280;47980;48.794;9.176;2023-04-10T04:35:00;98779.44;;;5.57;82.43
13767;BME280;47980;48.794;9.176;2023-04-10T04:37:32;98781.25;;;5.62;82.34
13767;BME280;47980;48.794;9.176;2023-04-10T04:40:05;98781.72;;;5.69;80.84
13767;BME280;47980;48.794;9.176;2023-04-10T04:42:36;98783.34;;;5.65;81.57
13767;BME280;47980;48.794;9.176;2023-04-10T04:45:09;98779.94;;;5.59;81.31
13767;BME280;47980;48.794;9.176;2023-04-10T04:47:41;98779.41;;;5.62;81.66
13767;BME280;47980;48.794;9.176;2023-04-10T04:50:13;98781.50;;;5.65;79.97
13767;BME280;47980;48.794;9.176;2023-04-10T04:52:45;98764.13;;;5.64;80.80
13767;BME280;47980;48.794;9.176;2023-04-10T04:55:16;98772.53;;;5.66;81.67
13767;BME280;47980;48.794;9.176;2023-04-10T04:57:48;98770.28;;;5.84;80.06
13767;BME280;47980;48.794;9.176;2023-04-10T05:00:19;98769.16;;;5.95;80.61
13767;BME280;47980;48.794;9.176;2023-04-10T05:02:52;98768.25;;;6.10;79.82
13767;BME280;47980;48.794;9.176;2023-04-10T05:05:24;98769.38;;;6.27;79.26
13767;BME280;47980;48.794;9.176;2023-04-10T05:07:56;98771.06;;;6.42;78.13
13767;BME280;47980;48.794;9.176;2023-04-10T05:10:27;98773.59;;;6.53;77.86
13767;BME280;47980;48.794;9.176;2023-04-10T05:12:59;98777.97;;;6.62;76.43
13767;BME280;47980;48.794;9.176;2023-04-10T05:15:30;98770.78;;;6.68;76.10
13767;BME280;47980;48.794;9.176;2023-04-10T05:18:04;98771.97;;;6.81;76.25
13767;BME280;47980;48.794;9.176;2023-04-10T05:20:35;98771.09;;;6.85;74.96
13767;BME280;47980;48.794;9.176;2023-04-10T05:23:07;98765.41;;;6.97;75.73
13767;BME280;47980;48.794;9.176;2023-04-10T05:25:40;98774.28;;;7.06;74.87
13767;BME280;47980;48.794;9.176;2023-04-10T05:28:11;98772.19;;;7.03;75.55
13767;BME280;47980;48.794;9.176;2023-04-10T05:30:43;98782.66;;;6.89;77.31
13767;BME280;47980;48.794;9.176;2023-04-10T05:33:16;98783.06;;;7.02;74.85
13767;BME280;47980;48.794;9.176;2023-04-10T05:35:47;98780.41;;;7.02;75.89
13767;BME280;47980;48.794;9.176;2023-04-10T05:38:19;98774.16;;;7.16;74.36
13767;BME280;47980;48.794;9.176;2023-04-10T05:40:51;98774.78;;;7.08;73.92
13767;BME280;47980;48.794;9.176;2023-04-10T05:43:22;98776.41;;;7.42;73.08
13767;BME280;47980;48.794;9.176;2023-04-10T05:45:54;98776.00;;;7.35;73.08
13767;BME280;47980;48.794;9.176;2023-04-10T05:48:27;98778.56;;;7.40;72.18
13767;BME280;47980;48.794;9.176;2023-04-10T05:50:58;98782.03;;;7.54;72.58
13767;BME280;47980;48.794;9.176;2023-04-10T05:53:30;98776.03;;;7.67;71.97
13767;BME280;47980;48.794;9.176;2023-04-10T05:56:02;98776.00;;;7.86;71.10
13767;BME280;47980;48.794;9.176;2023-04-10T05:58:34;98778.16;;;7.84;71.03
13767;BME280;47980;48.794;9.176;2023-04-10T06:01:07;98776.31;;;7.99;70.06
13767;BME280;47980;48.794;9.176;2023-04-10T06:03:40;98773.63;;;8.17;69.62
13767;BME280;47980;48.794;9.176;2023-04-10T06:06:12;98779.25;;;8.43;69.62
13767;BME280;47980;48.794;9.176;2023-04-10T06:08:43;98783.16;;;8.60;68.98
13767;BME280;47980;48.794;9.176;2023-04-10T06:11:15;98792.94;;;8.46;68.41
13767;BME280;47980;48.794;9.176;2023-04-10T06:13:47;98787.28;;;8.52;68.05
13767;BME280;47980;48.794;9.176;2023-04-10T06:16:18;98785.72;;;8.51;68.81
13767;BME280;47980;48.794;9.176;2023-04-10T06:18:51;98786.13;;;8.72;66.87
13767;BME280;47980;48.794;9.176;2023-04-10T06:21:23;98778.97;;;8.86;66.84
13767;BME280;47980;48.794;9.176;2023-04-10T06:23:55;98780.53;;;8.74;67.08
13767;BME280;47980;48.794;9.176;2023-04-10T06:26:26;98789.34;;;8.83;66.57
13767;BME280;47980;48.794;9.176;2023-04-10T06:28:58;98786.66;;;8.97;66.66
13767;BME280;47980;48.794;9.176;2023-04-10T06:31:32;98780.69;;;9.05;67.87
13767;BME280;47980;48.794;9.176;2023-04-10T06:34:05;98777.28;;;9.04;66.77
13767;BME280;47980;48.794;9.176;2023-04-10T06:36:36;98783.03;;;8.92;67.08
13767;BME280;47980;48.794;9.176;2023-04-10T06:39:08;98784.34;;;8.81;67.28
13767;BME280;47980;48.794;9.176;2023-04-10T06:41:39;98781.69;;;8.95;67.10
13767;BME280;47980;48.794;9.176;2023-04-10T06:44:11;98780.28;;;9.11;65.42
13767;BME280;47980;48.794;9.176;2023-04-10T06:46:42;98780.28;;;9.11;66.83
13767;BME280;47980;48.794;9.176;2023-04-10T06:49:15;98781.88;;;9.35;66.01
13767;BME280;47980;48.794;9.176;2023-04-10T06:51:47;98780.13;;;9.67;65.24
13767;BME280;47980;48.794;9.176;2023-04-10T06:54:19;98776.13;;;9.55;63.65
13767;BME280;47980;48.794;9.176;2023-04-10T06:56:50;98780.47;;;9.74;62.25
13767;BME280;47980;48.794;9.176;2023-04-10T06:59:22;98777.31;;;9.49;64.07
13767;BME280;47980;48.794;9.176;2023-04-10T07:01:53;98775.88;;;9.65;62.92
13767;BME280;47980;48.794;9.176;2023-04-10T07:04:26;98776.16;;;10.09;62.06
13767;BME280;47980;48.794;9.176;2023-04-10T07:06:58;98764.13;;;10.34;60.96
13767;BME280;47980;48.794;9.176;2023-04-10T07:09:30;98766.53;;;10.53;59.39
13767;BME280;47980;48.794;9.176;2023-04-10T07:12:02;98760.38;;;10.75;59.30
13767;BME280;47980;48.794;9.176;2023-04-10T07:14:34;98762.75;;;10.45;60.65
13767;BME280;47980;48.794;9.176;2023-04-10T07:17:05;98759.13;;;10.81;57.77
13767;BME280;47980;48.794;9.176;2023-04-10T07:19:38;98763.16;;;10.61;59.17
13767;BME280;47980;48.794;9.176;2023-04-10T07:22:10;98756.63;;;10.76;58.32
13767;BME280;47980;48.794;9.176;2023-04-10T07:24:42;98752.38;;;10.57;56.04
13767;BME280;47980;48.794;9.176;2023-04-10T07:27:14;98759.16;;;10.90;56.65
13767;BME280;47980;48.794;9.176;2023-04-10T07:29:46;98759.81;;;11.21;55.57
13767;BME280;47980;48.794;9.176;2023-04-10T07:32:17;98764.03;;;11.31;54.57
13767;BME280;47980;48.794;9.176;2023-04-10T07:34:50;98762.16;;;11.23;54.10
13767;BME280;47980;48.794;9.176;2023-04-10T07:37:22;98766.06;;;11.34;52.72
13767;BME280;47980;48.794;9.176;2023-04-10T07:39:53;98767.78;;;11.04;53.76
13767;BME280;47980;48.794;9.176;2023-04-10T07:42:25;98774.50;;;11.45;53.74
13767;BME280;47980;48.794;9.176;2023-04-10T07:44:56;98758.31;;;12.11;52.88
13767;BME280;47980;48.794;9.176;2023-04-10T07:47:28;98754.00;;;11.89;51.69
13767;BME280;47980;48.794;9.176;2023-04-10T07:50:01;98756.63;;;12.06;52.71
13767;BME280;47980;48.794;9.176;2023-04-10T07:52:33;98763.19;;;12.47;49.92
13767;BME280;47980;48.794;9.176;2023-04-10T07:55:05;98759.91;;;12.41;50.32
13767;BME280;47980;48.794;9.176;2023-04-10T07:57:37;98761.31;;;12.47;50.67
13767;BME280;47980;48.794;9.176;2023-04-10T08:00:09;98757.09;;;12.46;51.63
13767;BME280;47980;48.794;9.176;2023-04-10T08:02:41;98755.13;;;12.64;49.89
13767;BME280;47980;48.794;9.176;2023-04-10T08:05:14;98756.00;;;12.98;50.66
13767;BME280;47980;48.794;9.176;2023-04-10T08:07:45;98757.44;;;13.16;50.35
13767;BME280;47980;48.794;9.176;2023-04-10T08:10:17;98750.59;;;13.36;48.13
13767;BME280;47980;48.794;9.176;2023-04-10T08:12:48;98755.09;;;13.57;47.30
13767;BME280;47980;48.794;9.176;2023-04-10T08:15:20;98749.34;;;13.55;46.86
13767;BME280;47980;48.794;9.176;2023-04-10T08:17:51;98746.09;;;13.82;47.46
13767;BME280;47980;48.794;9.176;2023-04-10T08:20:25;98741.75;;;13.78;46.76
13767;BME280;47980;48.794;9.176;2023-04-10T08:22:56;98743.09;;;13.84;46.20
13767;BME280;47980;48.794;9.176;2023-04-10T08:25:28;98743.66;;;13.89;46.25
13767;BME280;47980;48.794;9.176;2023-04-10T08:27:59;98737.69;;;13.59;46.62
13767;BME280;47980;48.794;9.176;2023-04-10T08:30:31;98749.59;;;13.62;46.06
13767;BME280;47980;48.794;9.176;2023-04-10T08:33:02;98741.72;;;13.65;46.10
13767;BME280;47980;48.794;9.176;2023-04-10T08:35:35;98743.16;;;13.75;46.52
13767;BME280;47980;48.794;9.176;2023-04-10T08:38:07;98739.59;;;13.59;45.90
13767;BME280;47980;48.794;9.176;2023-04-10T08:40:39;98736.84;;;13.80;45.62
13767;BME280;47980;48.794;9.176;2023-04-10T08:43:10;98739.78;;;13.99;45.31
13767;BME280;47980;48.794;9.176;2023-04-10T08:45:42;98742.16;;;14.13;44.39
13767;BME280;47980;48.794;9.176;2023-04-10T08:48:15;98730.63;;;14.58;44.85
13767;BME280;47980;48.794;9.176;2023-04-10T08:50:50;98731.59;;;14.29;44.49
13767;BME280;47980;48.794;9.176;2023-04-10T08:53:23;98721.00;;;14.93;45.15
13767;BME280;47980;48.794;9.176;2023-04-10T08:55:57;98724.19;;;15.39;43.24
13767;BME280;47980;48.794;9.176;2023-04-10T08:58:32;98718.09;;;15.83;42.24
13767;BME280;47980;48.794;9.176;2023-04-10T09:01:05;98716.53;;;15.54;42.58
13767;BME280;47980;48.794;9.176;2023-04-10T09:03:37;98721.59;;;15.43;41.86
13767;BME280;47980;48.794;9.176;2023-04-10T09:06:10;98722.44;;;15.31;41.58
13767;BME280;47980;48.794;9.176;2023-04-10T09:08:42;98717.19;;;15.63;41.87
13767;BME280;47980;48.794;9.176;2023-04-10T09:11:14;98711.88;;;14.95;42.47
13767;BME280;47980;48.794;9.176;2023-04-10T09:13:45;98719.06;;;15.19;41.99
13767;BME280;47980;48.794;9.176;2023-04-10T09:16:27;98712.41;;;15.69;40.88
13767;BME280;47980;48.794;9.176;2023-04-10T09:18:59;98715.28;;;16.23;41.57
13767;BME280;47980;48.794;9.176;2023-04-10T09:21:33;98716.31;;;16.34;40.96
13767;BME280;47980;48.794;9.176;2023-04-10T09:24:05;98715.69;;;16.25;39.17
13767;BME280;47980;48.794;9.176;2023-04-10T09:26:36;98717.25;;;16.10;38.97
13767;BME280;47980;48.794;9.176;2023-04-10T09:29:08;98708.53;;;15.82;39.42
13767;BME280;47980;48.794;9.176;2023-04-10T09:31:42;98707.84;;;16.17;39.31
13767;BME280;47980;48.794;9.176;2023-04-10T09:34:16;98703.34;;;16.05;39.92
13767;BME280;47980;48.794;9.176;2023-04-10T09:36:54;98694.97;;;15.75;39.30
13767;BME280;47980;48.794;9.176;2023-04-10T09:39:33;98682.44;;;16.26;38.54
13767;BME280;47980;48.794;9.176;2023-04-10T09:42:05;98689.81;;;15.98;38.89
13767;BME280;47980;48.794;9.176;2023-04-10T09:44:38;98675.72;;;15.85;39.40
13767;BME280;47980;48.794;9.176;2023-04-10T09:47:18;98667.03;;;15.88;38.61
13767;BME280;47980;48.794;9.176;2023-04-10T09:49:51;98665.34;;;16.31;38.39
13767;BME280;47980;48.794;9.176;2023-04-10T09:52:26;98661.09;;;16.30;38.13
13767;BME280;47980;48.794;9.176;2023-04-10T09:55:00;98655.44;;;16.51;38.19
13767;BME280;47980;48.794;9.176;2023-04-10T09:57:32;98647.00;;;16.49;37.15
13767;BME280;47980;48.794;9.176;2023-04-10T10:00:05;98649.69;;;16.68;37.37
13767;BME280;47980;48.794;9.176;2023-04-10T10:02:38;98647.13;;;16.21;38.06
13767;BME280;47980;48.794;9.176;2023-04-10T10:05:11;98649.25;;;16.66;38.09
13767;BME280;47980;48.794;9.176;2023-04-10T10:07:44;98637.97;;;16.92;37.31
13767;BME280;47980;48.794;9.176;2023-04-10T10:10:17;98635.53;;;17.06;37.35
13767;BME280;47980;48.794;9.176;2023-04-10T10:12:51;98635.69;;;17.33;37.19
13767;BME280;47980;48.794;9.176;2023-04-10T10:15:30;98630.97;;;17.07;36.18
13767;BME280;47980;48.794;9.176;2023-04-10T10:18:10;98622.47;;;16.47;37.04
13767;BME280;47980;48.794;9.176;2023-04-10T10:20:44;98621.38;;;17.06;37.76
13767;BME280;47980;48.794;9.176;2023-04-10T10:23:19;98617.09;;;17.44;36.83
13767;BME280;47980;48.794;9.176;2023-04-10T10:25:53;98617.59;;;17.07;35.84
13767;BME280;47980;48.794;9.176;2023-04-10T10:28:26;98611.22;;;17.38;35.76
13767;BME280;47980;48.794;9.176;2023-04-10T10:30:58;98603.50;;;17.14;36.13
13767;BME280;47980;48.794;9.176;2023-04-10T10:33:34;98593.53;;;17.33;36.01
13767;BME280;47980;48.794;9.176;2023-04-10T10:36:07;98593.38;;;17.03;36.64
13767;BME280;47980;48.794;9.176;2023-04-10T10:38:49;98578.41;;;17.22;37.10
13767;BME280;47980;48.794;9.176;2023-04-10T10:41:27;98564.66;;;17.96;34.82
13767;BME280;47980;48.794;9.176;2023-04-10T10:44:05;98581.53;;;18.23;34.97
13767;BME280;47980;48.794;9.176;2023-04-10T10:46:42;98573.47;;;18.23;32.88
13767;BME280;47980;48.794;9.176;2023-04-10T10:49:15;98568.41;;;18.48;32.25
13767;BME280;47980;48.794;9.176;2023-04-10T10:51:48;98566.13;;;18.50;31.43
13767;BME280;47980;48.794;9.176;2023-04-10T10:54:31;98569.47;;;18.40;30.67
13767;BME280;47980;48.794;9.176;2023-04-10T11:00:10;98553.16;;;18.56;30.92
13767;BME280;47980;48.794;9.176;2023-04-10T11:02:42;98555.34;;;18.16;31.07
13767;BME280;47980;48.794;9.176;2023-04-10T11:05:51;98548.06;;;18.47;32.22
13767;BME280;47980;48.794;9.176;2023-04-10T11:08:41;98548.78;;;18.44;31.62
13767;BME280;47980;48.794;9.176;2023-04-10T11:11:16;98552.28;;;18.78;30.59
13767;BME280;47980;48.794;9.176;2023-04-10T11:14:11;98552.25;;;18.74;31.55
13767;BME280;47980;48.794;9.176;2023-04-10T11:16:47;98549.25;;;18.83;30.06
13767;BME280;47980;48.794;9.176;2023-04-10T11:19:18;98540.09;;;18.24;30.29
13767;BME280;47980;48.794;9.176;2023-04-10T11:22:04;98536.34;;;18.66;29.74
13767;BME280;47980;48.794;9.176;2023-04-10T11:24:58;98538.28;;;18.65;31.00
13767;BME280;47980;48.794;9.176;2023-04-10T11:27:45;98533.25;;;18.60;32.22
13767;BME280;47980;48.794;9.176;2023-04-10T11:30:29;98536.81;;;18.38;30.53
13767;BME280;47980;48.794;9.176;2023-04-10T11:33:02;98532.75;;;18.51;30.93
13767;BME280;47980;48.794;9.176;2023-04-10T11:35:34;98532.84;;;18.28;30.03
13767;BME280;47980;48.794;9.176;2023-04-10T11:38:15;98528.16;;;17.91;29.62
13767;BME280;47980;48.794;9.176;2023-04-10T11:40:57;98516.28;;;17.92;29.79
13767;BME280;47980;48.794;9.176;2023-04-10T11:43:31;98526.13;;;18.41;29.86
13767;BME280;47980;48.794;9.176;2023-04-10T11:46:04;98515.53;;;18.25;30.10
13767;BME280;47980;48.794;9.176;2023-04-10T11:48:36;98523.19;;;18.53;30.08
13767;BME280;47980;48.794;9.176;2023-04-10T11:51:09;98512.72;;;18.45;30.49
13767;BME280;47980;48.794;9.176;2023-04-10T11:53:42;98509.75;;;18.53;28.83
13767;BME280;47980;48.794;9.176;2023-04-10T11:56:16;98506.06;;;19.06;29.52
13767;BME280;47980;48.794;9.176;2023-04-10T11:58:49;98507.00;;;19.21;29.03
13767;BME280;47980;48.794;9.176;2023-04-10T12:01:22;98497.56;;;19.00;28.68
13767;BME280;47980;48.794;9.176;2023-04-10T12:03:54;98498.66;;;19.37;29.78
13767;BME280;47980;48.794;9.176;2023-04-10T12:06:26;98492.16;;;18.97;28.30
13767;BME280;47980;48.794;9.176;2023-04-10T12:08:59;98479.09;;;18.95;27.90
13767;BME280;47980;48.794;9.176;2023-04-10T12:11:30;98481.94;;;19.17;27.85
13767;BME280;47980;48.794;9.176;2023-04-10T12:14:02;98463.13;;;19.17;28.72
13767;BME280;47980;48.794;9.176;2023-04-10T12:16:33;98458.38;;;19.47;30.17
13767;BME280;47980;48.794;9.176;2023-04-10T12:19:05;98455.44;;;19.70;27.67
13767;BME280;47980;48.794;9.176;2023-04-10T12:21:37;98455.44;;;19.70;27.85
13767;BME280;47980;48.794;9.176;2023-04-10T12:24:12;98455.19;;;19.35;26.52
13767;BME280;47980;48.794;9.176;2023-04-10T12:27:04;98460.59;;;19.38;28.10
13767;BME280;47980;48.794;9.176;2023-04-10T12:29:35;98457.66;;;19.54;27.82
13767;BME280;47980;48.794;9.176;2023-04-10T12:32:07;98452.72;;;19.67;26.94
13767;BME280;47980;48.794;9.176;2023-04-10T12:34:39;98448.88;;;19.68;25.54
13767;BME280;47980;48.794;9.176;2023-04-10T12:37:11;98448.13;;;19.71;26.04
13767;BME280;47980;48.794;9.176;2023-04-10T12:39:44;98445.56;;;19.92;26.35
13767;BME280;47980;48.794;9.176;2023-04-10T12:42:17;98438.31;;;19.41;25.24
13767;BME280;47980;48.794;9.176;2023-04-10T12:44:51;98426.41;;;19.42;25.79
13767;BME280;47980;48.794;9.176;2023-04-10T12:47:24;98431.41;;;19.40;25.81
13767;BME280;47980;48.794;9.176;2023-04-10T12:50:06;98433.50;;;19.13;26.01
13767;BME280;47980;48.794;9.176;2023-04-10T12:52:39;98423.59;;;19.80;26.52
13767;BME280;47980;48.794;9.176;2023-04-10T12:55:13;98422.94;;;19.42;25.87
13767;BME280;47980;48.794;9.176;2023-04-10T12:57:47;98425.44;;;19.68;27.23
13767;BME280;47980;48.794;9.176;2023-04-10T13:00:18;98420.91;;;19.83;27.43
13767;BME280;47980;48.794;9.176;2023-04-10T13:02:50;98421.94;;;19.64;27.53
13767;BME280;47980;48.794;9.176;2023-04-10T13:05:22;98412.25;;;19.53;27.25
13767;BME280;47980;48.794;9.176;2023-04-10T13:07:54;98402.56;;;19.37;27.44
13767;BME280;47980;48.794;9.176;2023-04-10T13:10:27;98413.72;;;19.36;26.69
13767;BME280;47980;48.794;9.176;2023-04-10T13:13:00;98410.97;;;19.29;26.79
13767;BME280;47980;48.794;9.176;2023-04-10T13:15:32;98405.50;;;19.77;27.13
13767;BME280;47980;48.794;9.176;2023-04-10T13:18:04;98402.88;;;19.94;26.57
13767;BME280;47980;48.794;9.176;2023-04-10T13:20:37;98399.88;;;20.21;26.00
13767;BME280;47980;48.794;9.176;2023-04-10T13:23:09;98391.84;;;20.42;26.19
13767;BME280;47980;48.794;9.176;2023-04-10T13:25:43;98396.81;;;20.23;26.48
13767;BME280;47980;48.794;9.176;2023-04-10T13:28:14;98389.81;;;20.04;26.00
13767;BME280;47980;48.794;9.176;2023-04-10T13:30:48;98393.69;;;20.10;27.42
13767;BME280;47980;48.794;9.176;2023-04-10T13:33:19;98386.72;;;19.94;26.75
13767;BME280;47980;48.794;9.176;2023-04-10T13:35:51;98395.16;;;19.93;27.61
13767;BME280;47980;48.794;9.176;2023-04-10T13:38:22;98384.88;;;20.27;27.46
13767;BME280;47980;48.794;9.176;2023-04-10T13:40:55;98374.50;;;20.47;27.84